Terminal Aerodrome Forecast
Issued by NWS

Home | Current Version | Previous Version | Text Only | Print | Product List | Glossary On
Versions: 1 2 3 4 5 6 7 8 9 10 11 12 13 14 15 16 17 18 19 20
000
FTUS41 KBOX 302344 AAA
TAFBED
TAF AMD
KBED 302344Z 3100/3124 VRB03KT P6SM BKN200
     FM310900 00000KT P6SM VCSH OVC050
     FM311300 VRB03KT 3SM -SN OVC020
     FM311400 VRB03KT 1 1/2SM -SN BR OVC020
     FM311700 09004KT 1SM -SNPL BR OVC015
     FM312100 10005KT 1SM -SN OVC010
     FM312200 10006KT 2SM -SN OVC010=

USA.gov is the U.S. government's official web portal to all federal, state and local government web resources and services.